sensor_id;sensor_type;location;lat;lon;timestamp;P1;durP1;ratioP1;P2;durP2;ratioP2
36989;SDS011;22898;52.102;5.776;2022-09-30T00:01:18;1.52;;;1.42;;
36989;SDS011;22898;52.102;5.776;2022-09-30T00:03:44;1.25;;;1.02;;
36989;SDS011;22898;52.102;5.776;2022-09-30T00:06:12;1.30;;;1.20;;
36989;SDS011;22898;52.102;5.776;2022-09-30T00:08:37;1.90;;;1.35;;
36989;SDS011;22898;52.102;5.776;2022-09-30T00:11:07;1.55;;;1.40;;
36989;SDS011;22898;52.102;5.776;2022-09-30T00:13:40;1.08;;;0.98;;
36989;SDS011;22898;52.102;5.776;2022-09-30T00:16:08;2.97;;;1.52;;
36989;SDS011;22898;52.102;5.776;2022-09-30T00:18:34;1.65;;;1.55;;
36989;SDS011;22898;52.102;5.776;2022-09-30T00:21:01;1.27;;;1.17;;
36989;SDS011;22898;52.102;5.776;2022-09-30T00:23:26;0.90;;;0.90;;
36989;SDS011;22898;52.102;5.776;2022-09-30T00:25:59;1.00;;;0.90;;
36989;SDS011;22898;52.102;5.776;2022-09-30T00:28:26;1.33;;;1.23;;
36989;SDS011;22898;52.102;5.776;2022-09-30T00:30:53;1.20;;;1.10;;
36989;SDS011;22898;52.102;5.776;2022-09-30T00:33:25;1.30;;;1.20;;
36989;SDS011;22898;52.102;5.776;2022-09-30T00:35:51;1.10;;;1.00;;
36989;SDS011;22898;52.102;5.776;2022-09-30T00:38:16;1.00;;;0.93;;
36989;SDS011;22898;52.102;5.776;2022-09-30T00:40:42;1.65;;;1.50;;
36989;SDS011;22898;52.102;5.776;2022-09-30T00:43:12;1.42;;;1.33;;
36989;SDS011;22898;52.102;5.776;2022-09-30T00:45:55;1.10;;;1.00;;
36989;SDS011;22898;52.102;5.776;2022-09-30T00:48:32;1.15;;;1.02;;
36989;SDS011;22898;52.102;5.776;2022-09-30T00:51:02;1.05;;;0.95;;
36989;SDS011;22898;52.102;5.776;2022-09-30T00:53:33;1.30;;;1.20;;
36989;SDS011;22898;52.102;5.776;2022-09-30T00:56:06;1.20;;;0.90;;
36989;SDS011;22898;52.102;5.776;2022-09-30T00:58:37;1.27;;;1.17;;
36989;SDS011;22898;52.102;5.776;2022-09-30T01:01:03;1.88;;;1.38;;
36989;SDS011;22898;52.102;5.776;2022-09-30T01:03:30;1.45;;;1.35;;
36989;SDS011;22898;52.102;5.776;2022-09-30T01:06:03;3.25;;;1.48;;
36989;SDS011;22898;52.102;5.776;2022-09-30T01:08:29;1.55;;;1.45;;
36989;SDS011;22898;52.102;5.776;2022-09-30T01:10:59;1.52;;;1.42;;
36989;SDS011;22898;52.102;5.776;2022-09-30T01:13:25;1.55;;;1.45;;
36989;SDS011;22898;52.102;5.776;2022-09-30T01:15:59;2.97;;;1.60;;
36989;SDS011;22898;52.102;5.776;2022-09-30T01:21:32;1.08;;;1.00;;
36989;SDS011;22898;52.102;5.776;2022-09-30T01:30:08;1.42;;;1.33;;
36989;SDS011;22898;52.102;5.776;2022-09-30T01:33:02;2.58;;;1.70;;
36989;SDS011;22898;52.102;5.776;2022-09-30T01:38:25;1.08;;;0.98;;
36989;SDS011;22898;52.102;5.776;2022-09-30T01:41:06;1.00;;;0.90;;
36989;SDS011;22898;52.102;5.776;2022-09-30T01:43:44;3.72;;;1.65;;
36989;SDS011;22898;52.102;5.776;2022-09-30T01:46:37;0.98;;;0.90;;
36989;SDS011;22898;52.102;5.776;2022-09-30T01:49:19;4.75;;;1.75;;
36989;SDS011;22898;52.102;5.776;2022-09-30T02:00:10;2.50;;;2.08;;
36989;SDS011;22898;52.102;5.776;2022-09-30T02:02:45;1.60;;;1.02;;
36989;SDS011;22898;52.102;5.776;2022-09-30T02:10:44;1.20;;;1.10;;
36989;SDS011;22898;52.102;5.776;2022-09-30T02:13:28;1.30;;;1.20;;
36989;SDS011;22898;52.102;5.776;2022-09-30T02:16:07;1.30;;;1.20;;
36989;SDS011;22898;52.102;5.776;2022-09-30T02:18:46;1.10;;;1.00;;
36989;SDS011;22898;52.102;5.776;2022-09-30T02:21:17;0.98;;;0.90;;
36989;SDS011;22898;52.102;5.776;2022-09-30T02:23:48;1.38;;;1.25;;
36989;SDS011;22898;52.102;5.776;2022-09-30T02:26:25;1.33;;;1.23;;
36989;SDS011;22898;52.102;5.776;2022-09-30T02:28:58;1.48;;;1.38;;
36989;SDS011;22898;52.102;5.776;2022-09-30T02:31:31;1.15;;;1.02;;
36989;SDS011;22898;52.102;5.776;2022-09-30T02:34:10;0.88;;;0.85;;
36989;SDS011;22898;52.102;5.776;2022-09-30T02:37:11;1.23;;;1.13;;
36989;SDS011;22898;52.102;5.776;2022-09-30T02:39:53;1.00;;;0.95;;
36989;SDS011;22898;52.102;5.776;2022-09-30T02:42:31;0.95;;;0.93;;
36989;SDS011;22898;52.102;5.776;2022-09-30T02:44:59;1.10;;;1.00;;
36989;SDS011;22898;52.102;5.776;2022-09-30T02:53:02;1.40;;;1.30;;
36989;SDS011;22898;52.102;5.776;2022-09-30T02:58:26;1.02;;;0.95;;
36989;SDS011;22898;52.102;5.776;2022-09-30T03:00:54;1.45;;;1.35;;
36989;SDS011;22898;52.102;5.776;2022-09-30T03:03:21;3.88;;;1.48;;
36989;SDS011;22898;52.102;5.776;2022-09-30T03:05:55;0.80;;;0.80;;
36989;SDS011;22898;52.102;5.776;2022-09-30T03:08:21;1.20;;;1.05;;
36989;SDS011;22898;52.102;5.776;2022-09-30T03:10:47;1.00;;;0.90;;
36989;SDS011;22898;52.102;5.776;2022-09-30T03:27:28;1.15;;;1.00;;
36989;SDS011;22898;52.102;5.776;2022-09-30T03:30:16;1.50;;;1.17;;
36989;SDS011;22898;52.102;5.776;2022-09-30T03:32:48;1.92;;;1.38;;
36989;SDS011;22898;52.102;5.776;2022-09-30T03:41:28;1.30;;;1.13;;
36989;SDS011;22898;52.102;5.776;2022-09-30T03:44:22;1.23;;;1.13;;
36989;SDS011;22898;52.102;5.776;2022-09-30T03:46:55;1.15;;;1.05;;
36989;SDS011;22898;52.102;5.776;2022-09-30T03:49:33;1.85;;;1.50;;
36989;SDS011;22898;52.102;5.776;2022-09-30T03:52:06;1.40;;;1.08;;
36989;SDS011;22898;52.102;5.776;2022-09-30T03:54:49;1.05;;;0.95;;
36989;SDS011;22898;52.102;5.776;2022-09-30T03:57:18;0.82;;;0.82;;
36989;SDS011;22898;52.102;5.776;2022-09-30T03:59:44;1.10;;;1.00;;
36989;SDS011;22898;52.102;5.776;2022-09-30T04:02:10;1.00;;;0.90;;
36989;SDS011;22898;52.102;5.776;2022-09-30T04:04:38;1.00;;;0.90;;
36989;SDS011;22898;52.102;5.776;2022-09-30T04:07:05;1.00;;;0.90;;
36989;SDS011;22898;52.102;5.776;2022-09-30T04:09:32;1.05;;;0.98;;
36989;SDS011;22898;52.102;5.776;2022-09-30T04:11:57;1.98;;;1.83;;
36989;SDS011;22898;52.102;5.776;2022-09-30T04:14:23;1.10;;;1.00;;
36989;SDS011;22898;52.102;5.776;2022-09-30T04:16:48;1.10;;;1.00;;
36989;SDS011;22898;52.102;5.776;2022-09-30T04:19:14;1.20;;;1.10;;
36989;SDS011;22898;52.102;5.776;2022-09-30T04:21:39;0.98;;;0.90;;
36989;SDS011;22898;52.102;5.776;2022-09-30T04:24:05;1.10;;;1.00;;
36989;SDS011;22898;52.102;5.776;2022-09-30T04:26:31;1.15;;;1.05;;
36989;SDS011;22898;52.102;5.776;2022-09-30T04:28:57;1.15;;;1.05;;
36989;SDS011;22898;52.102;5.776;2022-09-30T04:31:23;1.15;;;1.05;;
36989;SDS011;22898;52.102;5.776;2022-09-30T04:33:49;3.35;;;1.92;;
36989;SDS011;22898;52.102;5.776;2022-09-30T04:36:14;0.88;;;0.88;;
36989;SDS011;22898;52.102;5.776;2022-09-30T04:38:40;1.42;;;1.20;;
36989;SDS011;22898;52.102;5.776;2022-09-30T04:41:06;1.30;;;1.08;;
36989;SDS011;22898;52.102;5.776;2022-09-30T04:43:33;1.00;;;0.90;;
36989;SDS011;22898;52.102;5.776;2022-09-30T04:45:59;1.33;;;1.23;;
36989;SDS011;22898;52.102;5.776;2022-09-30T04:48:25;1.13;;;1.02;;
36989;SDS011;22898;52.102;5.776;2022-09-30T04:50:52;1.02;;;0.93;;
36989;SDS011;22898;52.102;5.776;2022-09-30T04:53:18;1.27;;;1.17;;
36989;SDS011;22898;52.102;5.776;2022-09-30T04:55:44;1.17;;;0.98;;
36989;SDS011;22898;52.102;5.776;2022-09-30T04:58:10;1.15;;;1.05;;
36989;SDS011;22898;52.102;5.776;2022-09-30T05:00:36;0.80;;;0.80;;
36989;SDS011;22898;52.102;5.776;2022-09-30T05:03:02;1.35;;;1.25;;
36989;SDS011;22898;52.102;5.776;2022-09-30T05:05:28;1.50;;;1.40;;
36989;SDS011;22898;52.102;5.776;2022-09-30T05:08:01;1.27;;;1.08;;
36989;SDS011;22898;52.102;5.776;2022-09-30T05:10:27;1.08;;;0.98;;
36989;SDS011;22898;52.102;5.776;2022-09-30T05:12:54;1.58;;;1.35;;
36989;SDS011;22898;52.102;5.776;2022-09-30T05:15:19;1.05;;;1.00;;
36989;SDS011;22898;52.102;5.776;2022-09-30T05:17:47;1.10;;;1.00;;
36989;SDS011;22898;52.102;5.776;2022-09-30T05:20:13;1.10;;;1.00;;
36989;SDS011;22898;52.102;5.776;2022-09-30T05:22:38;1.23;;;1.13;;
36989;SDS011;22898;52.102;5.776;2022-09-30T05:25:04;1.50;;;1.20;;
36989;SDS011;22898;52.102;5.776;2022-09-30T05:27:30;1.25;;;1.13;;
36989;SDS011;22898;52.102;5.776;2022-09-30T05:29:56;1.33;;;1.23;;
36989;SDS011;22898;52.102;5.776;2022-09-30T05:32:22;1.45;;;1.35;;
36989;SDS011;22898;52.102;5.776;2022-09-30T05:34:48;1.33;;;1.20;;
36989;SDS011;22898;52.102;5.776;2022-09-30T05:37:14;1.75;;;1.52;;
36989;SDS011;22898;52.102;5.776;2022-09-30T05:39:40;3.15;;;1.92;;
36989;SDS011;22898;52.102;5.776;2022-09-30T05:42:06;3.10;;;2.15;;
36989;SDS011;22898;52.102;5.776;2022-09-30T05:44:32;3.05;;;2.28;;
36989;SDS011;22898;52.102;5.776;2022-09-30T05:46:57;2.40;;;1.75;;
36989;SDS011;22898;52.102;5.776;2022-09-30T05:49:23;1.10;;;1.00;;
36989;SDS011;22898;52.102;5.776;2022-09-30T05:51:50;1.80;;;1.48;;
36989;SDS011;22898;52.102;5.776;2022-09-30T05:54:16;1.92;;;1.73;;
36989;SDS011;22898;52.102;5.776;2022-09-30T05:56:42;1.35;;;1.17;;
36989;SDS011;22898;52.102;5.776;2022-09-30T05:59:07;3.03;;;1.50;;
36989;SDS011;22898;52.102;5.776;2022-09-30T06:01:33;2.25;;;2.05;;
36989;SDS011;22898;52.102;5.776;2022-09-30T06:03:58;1.80;;;1.65;;
36989;SDS011;22898;52.102;5.776;2022-09-30T06:06:24;2.20;;;1.73;;
36989;SDS011;22898;52.102;5.776;2022-09-30T06:08:50;5.53;;;1.65;;
36989;SDS011;22898;52.102;5.776;2022-09-30T06:11:17;12.48;;;3.15;;
36989;SDS011;22898;52.102;5.776;2022-09-30T06:13:45;2.50;;;2.30;;
36989;SDS011;22898;52.102;5.776;2022-09-30T06:16:11;1.92;;;1.80;;
36989;SDS011;22898;52.102;5.776;2022-09-30T06:18:38;2.22;;;2.05;;
36989;SDS011;22898;52.102;5.776;2022-09-30T06:21:05;1.50;;;1.40;;
36989;SDS011;22898;52.102;5.776;2022-09-30T06:23:32;1.08;;;0.98;;
36989;SDS011;22898;52.102;5.776;2022-09-30T06:25:59;2.30;;;2.10;;
36989;SDS011;22898;52.102;5.776;2022-09-30T06:28:25;1.65;;;1.55;;
36989;SDS011;22898;52.102;5.776;2022-09-30T06:30:51;1.30;;;1.20;;
36989;SDS011;22898;52.102;5.776;2022-09-30T06:33:16;1.60;;;1.27;;
36989;SDS011;22898;52.102;5.776;2022-09-30T06:35:42;5.28;;;2.63;;
36989;SDS011;22898;52.102;5.776;2022-09-30T06:38:08;1.70;;;1.60;;
36989;SDS011;22898;52.102;5.776;2022-09-30T06:40:34;1.83;;;1.73;;
36989;SDS011;22898;52.102;5.776;2022-09-30T06:43:00;2.03;;;1.88;;
36989;SDS011;22898;52.102;5.776;2022-09-30T06:45:27;1.75;;;1.17;;
36989;SDS011;22898;52.102;5.776;2022-09-30T06:47:56;1.58;;;1.48;;
36989;SDS011;22898;52.102;5.776;2022-09-30T06:50:22;2.25;;;1.60;;
36989;SDS011;22898;52.102;5.776;2022-09-30T06:52:48;1.83;;;1.73;;
36989;SDS011;22898;52.102;5.776;2022-09-30T06:55:15;5.35;;;2.42;;
36989;SDS011;22898;52.102;5.776;2022-09-30T06:57:41;2.40;;;2.05;;
36989;SDS011;22898;52.102;5.776;2022-09-30T07:00:07;1.95;;;1.40;;
36989;SDS011;22898;52.102;5.776;2022-09-30T07:02:33;3.28;;;2.97;;
36989;SDS011;22898;52.102;5.776;2022-09-30T07:04:59;1.65;;;1.52;;
36989;SDS011;22898;52.102;5.776;2022-09-30T07:07:28;1.38;;;1.27;;
36989;SDS011;22898;52.102;5.776;2022-09-30T07:09:57;2.63;;;2.42;;
36989;SDS011;22898;52.102;5.776;2022-09-30T07:12:23;2.05;;;1.88;;
36989;SDS011;22898;52.102;5.776;2022-09-30T07:14:48;1.35;;;1.25;;
36989;SDS011;22898;52.102;5.776;2022-09-30T07:17:15;3.42;;;2.45;;
36989;SDS011;22898;52.102;5.776;2022-09-30T07:19:40;2.70;;;1.67;;
36989;SDS011;22898;52.102;5.776;2022-09-30T07:22:06;2.40;;;1.65;;
36989;SDS011;22898;52.102;5.776;2022-09-30T07:24:50;1.33;;;1.23;;
36989;SDS011;22898;52.102;5.776;2022-09-30T07:27:16;3.45;;;2.03;;
36989;SDS011;22898;52.102;5.776;2022-09-30T07:29:43;2.67;;;2.30;;
36989;SDS011;22898;52.102;5.776;2022-09-30T07:32:09;3.72;;;2.78;;
36989;SDS011;22898;52.102;5.776;2022-09-30T07:34:36;2.17;;;1.92;;
36989;SDS011;22898;52.102;5.776;2022-09-30T07:37:06;2.75;;;2.53;;
36989;SDS011;22898;52.102;5.776;2022-09-30T07:39:33;3.58;;;3.28;;
36989;SDS011;22898;52.102;5.776;2022-09-30T07:41:59;2.60;;;2.30;;
36989;SDS011;22898;52.102;5.776;2022-09-30T07:44:26;3.03;;;2.83;;
36989;SDS011;22898;52.102;5.776;2022-09-30T07:46:53;3.83;;;3.50;;
36989;SDS011;22898;52.102;5.776;2022-09-30T07:49:19;3.17;;;2.75;;
36989;SDS011;22898;52.102;5.776;2022-09-30T07:51:49;4.03;;;3.28;;
36989;SDS011;22898;52.102;5.776;2022-09-30T07:54:17;4.80;;;2.97;;
36989;SDS011;22898;52.102;5.776;2022-09-30T07:56:45;8.65;;;3.90;;
36989;SDS011;22898;52.102;5.776;2022-09-30T07:59:11;3.10;;;2.25;;
36989;SDS011;22898;52.102;5.776;2022-09-30T08:01:37;8.98;;;3.30;;
36989;SDS011;22898;52.102;5.776;2022-09-30T08:04:04;5.35;;;3.30;;
36989;SDS011;22898;52.102;5.776;2022-09-30T08:06:35;4.60;;;3.50;;
36989;SDS011;22898;52.102;5.776;2022-09-30T08:09:02;5.03;;;3.70;;
36989;SDS011;22898;52.102;5.776;2022-09-30T08:11:31;2.85;;;2.47;;
36989;SDS011;22898;52.102;5.776;2022-09-30T08:13:58;3.83;;;3.42;;
36989;SDS011;22898;52.102;5.776;2022-09-30T08:16:24;6.53;;;4.68;;
36989;SDS011;22898;52.102;5.776;2022-09-30T08:18:58;6.78;;;4.43;;
36989;SDS011;22898;52.102;5.776;2022-09-30T08:21:26;5.80;;;2.47;;
36989;SDS011;22898;52.102;5.776;2022-09-30T08:23:53;5.35;;;3.60;;
36989;SDS011;22898;52.102;5.776;2022-09-30T08:26:19;2.75;;;2.22;;
36989;SDS011;22898;52.102;5.776;2022-09-30T08:28:44;6.57;;;4.35;;
36989;SDS011;22898;52.102;5.776;2022-09-30T08:31:17;3.95;;;3.33;;
36989;SDS011;22898;52.102;5.776;2022-09-30T08:33:44;4.97;;;4.20;;
36989;SDS011;22898;52.102;5.776;2022-09-30T08:36:12;4.22;;;3.85;;
36989;SDS011;22898;52.102;5.776;2022-09-30T08:38:39;5.53;;;4.22;;
36989;SDS011;22898;52.102;5.776;2022-09-30T08:49:40;3.45;;;2.55;;
36989;SDS011;22898;52.102;5.776;2022-09-30T08:52:27;3.25;;;2.97;;
36989;SDS011;22898;52.102;5.776;2022-09-30T08:54:57;4.05;;;3.47;;
36989;SDS011;22898;52.102;5.776;2022-09-30T08:57:23;5.22;;;4.05;;
36989;SDS011;22898;52.102;5.776;2022-09-30T08:59:56;4.20;;;3.03;;
36989;SDS011;22898;52.102;5.776;2022-09-30T09:02:32;4.78;;;3.70;;
36989;SDS011;22898;52.102;5.776;2022-09-30T09:05:03;4.47;;;3.15;;
36989;SDS011;22898;52.102;5.776;2022-09-30T09:10:29;15.90;;;4.18;;
36989;SDS011;22898;52.102;5.776;2022-09-30T09:13:18;4.75;;;3.70;;
36989;SDS011;22898;52.102;5.776;2022-09-30T09:16:09;5.63;;;5.13;;
36989;SDS011;22898;52.102;5.776;2022-09-30T09:24:12;11.23;;;3.63;;
36989;SDS011;22898;52.102;5.776;2022-09-30T09:26:42;4.82;;;3.45;;
36989;SDS011;22898;52.102;5.776;2022-09-30T09:31:36;4.65;;;3.80;;
36989;SDS011;22898;52.102;5.776;2022-09-30T09:34:09;5.43;;;3.97;;
36989;SDS011;22898;52.102;5.776;2022-09-30T09:39:42;6.07;;;4.57;;
36989;SDS011;22898;52.102;5.776;2022-09-30T09:47:49;2.92;;;2.60;;
36989;SDS011;22898;52.102;5.776;2022-09-30T09:50:17;4.53;;;3.60;;
36989;SDS011;22898;52.102;5.776;2022-09-30T09:55:55;5.57;;;4.43;;
36989;SDS011;22898;52.102;5.776;2022-09-30T09:58:24;3.80;;;2.85;;
36989;SDS011;22898;52.102;5.776;2022-09-30T10:00:50;6.70;;;2.95;;
36989;SDS011;22898;52.102;5.776;2022-09-30T10:06:06;3.95;;;3.55;;
36989;SDS011;22898;52.102;5.776;2022-09-30T10:08:35;4.25;;;3.67;;
36989;SDS011;22898;52.102;5.776;2022-09-30T10:11:04;3.22;;;2.53;;
36989;SDS011;22898;52.102;5.776;2022-09-30T10:16:02;3.20;;;2.15;;
36989;SDS011;22898;52.102;5.776;2022-09-30T10:18:33;3.53;;;2.90;;
36989;SDS011;22898;52.102;5.776;2022-09-30T10:21:01;3.92;;;3.22;;
36989;SDS011;22898;52.102;5.776;2022-09-30T10:23:38;3.50;;;2.88;;
36989;SDS011;22898;52.102;5.776;2022-09-30T10:31:16;3.17;;;2.50;;
36989;SDS011;22898;52.102;5.776;2022-09-30T10:33:55;2.55;;;2.35;;
36989;SDS011;22898;52.102;5.776;2022-09-30T10:36:30;5.00;;;3.50;;
36989;SDS011;22898;52.102;5.776;2022-09-30T10:38:59;4.00;;;3.20;;
36989;SDS011;22898;52.102;5.776;2022-09-30T10:41:30;4.65;;;3.67;;
36989;SDS011;22898;52.102;5.776;2022-09-30T10:43:58;2.80;;;2.50;;
36989;SDS011;22898;52.102;5.776;2022-09-30T10:46:28;4.82;;;3.28;;
36989;SDS011;22898;52.102;5.776;2022-09-30T10:48:59;2.53;;;2.25;;
36989;SDS011;22898;52.102;5.776;2022-09-30T10:51:44;2.60;;;2.40;;
36989;SDS011;22898;52.102;5.776;2022-09-30T10:54:14;3.80;;;3.15;;
36989;SDS011;22898;52.102;5.776;2022-09-30T10:57:26;2.60;;;2.40;;
36989;SDS011;22898;52.102;5.776;2022-09-30T11:00:09;4.57;;;2.47;;
36989;SDS011;22898;52.102;5.776;2022-09-30T11:02:54;4.72;;;2.28;;
36989;SDS011;22898;52.102;5.776;2022-09-30T11:05:38;3.03;;;2.40;;
36989;SDS011;22898;52.102;5.776;2022-09-30T11:08:12;3.10;;;2.20;;
36989;SDS011;22898;52.102;5.776;2022-09-30T11:24:05;1.77;;;1.60;;
36989;SDS011;22898;52.102;5.776;2022-09-30T11:26:55;1.65;;;1.38;;
36989;SDS011;22898;52.102;5.776;2022-09-30T11:29:42;2.15;;;1.75;;
36989;SDS011;22898;52.102;5.776;2022-09-30T11:35:41;1.77;;;1.58;;
36989;SDS011;22898;52.102;5.776;2022-09-30T11:49:29;1.45;;;1.35;;
36989;SDS011;22898;52.102;5.776;2022-09-30T11:52:07;1.55;;;1.42;;
36989;SDS011;22898;52.102;5.776;2022-09-30T11:54:51;2.17;;;1.65;;
36989;SDS011;22898;52.102;5.776;2022-09-30T11:57:55;1.40;;;1.30;;
36989;SDS011;22898;52.102;5.776;2022-09-30T12:00:23;1.27;;;1.10;;
36989;SDS011;22898;52.102;5.776;2022-09-30T12:02:50;2.55;;;1.92;;
36989;SDS011;22898;52.102;5.776;2022-09-30T12:05:34;3.78;;;1.95;;
36989;SDS011;22898;52.102;5.776;2022-09-30T12:08:14;2.17;;;1.63;;
36989;SDS011;22898;52.102;5.776;2022-09-30T12:11:12;2.25;;;1.73;;
36989;SDS011;22898;52.102;5.776;2022-09-30T12:13:43;3.08;;;2.13;;
36989;SDS011;22898;52.102;5.776;2022-09-30T12:16:16;2.33;;;1.77;;
36989;SDS011;22898;52.102;5.776;2022-09-30T12:18:47;1.58;;;1.35;;
36989;SDS011;22898;52.102;5.776;2022-09-30T12:21:25;1.92;;;1.58;;
36989;SDS011;22898;52.102;5.776;2022-09-30T12:24:18;1.58;;;1.35;;
36989;SDS011;22898;52.102;5.776;2022-09-30T12:26:51;2.13;;;1.75;;
36989;SDS011;22898;52.102;5.776;2022-09-30T12:29:18;1.50;;;1.27;;
36989;SDS011;22898;52.102;5.776;2022-09-30T12:32:12;1.52;;;1.33;;
36989;SDS011;22898;52.102;5.776;2022-09-30T12:40:50;1.75;;;1.55;;
36989;SDS011;22898;52.102;5.776;2022-09-30T12:43:25;1.40;;;1.20;;
36989;SDS011;22898;52.102;5.776;2022-09-30T12:46:13;1.60;;;1.45;;
36989;SDS011;22898;52.102;5.776;2022-09-30T12:51:29;1.20;;;1.02;;
36989;SDS011;22898;52.102;5.776;2022-09-30T12:53:56;1.40;;;1.13;;
36989;SDS011;22898;52.102;5.776;2022-09-30T12:56:30;1.30;;;1.20;;
36989;SDS011;22898;52.102;5.776;2022-09-30T12:58:58;1.20;;;1.10;;
36989;SDS011;22898;52.102;5.776;2022-09-30T13:01:26;1.45;;;1.35;;
36989;SDS011;22898;52.102;5.776;2022-09-30T13:06:26;1.10;;;1.00;;
36989;SDS011;22898;52.102;5.776;2022-09-30T13:27:35;1.75;;;1.23;;
36989;SDS011;22898;52.102;5.776;2022-09-30T13:33:03;2.05;;;1.20;;
36989;SDS011;22898;52.102;5.776;2022-09-30T13:35:50;2.00;;;1.58;;
36989;SDS011;22898;52.102;5.776;2022-09-30T13:38:17;1.20;;;1.10;;
36989;SDS011;22898;52.102;5.776;2022-09-30T13:40:46;1.02;;;0.93;;
36989;SDS011;22898;52.102;5.776;2022-09-30T13:43:23;1.90;;;1.33;;
36989;SDS011;22898;52.102;5.776;2022-09-30T13:45:53;1.35;;;1.20;;
36989;SDS011;22898;52.102;5.776;2022-09-30T13:48:33;1.92;;;1.73;;
36989;SDS011;22898;52.102;5.776;2022-09-30T13:51:04;1.00;;;0.90;;
36989;SDS011;22898;52.102;5.776;2022-09-30T13:53:35;1.73;;;1.50;;
36989;SDS011;22898;52.102;5.776;2022-09-30T13:56:17;1.10;;;1.00;;
36989;SDS011;22898;52.102;5.776;2022-09-30T14:04:19;1.10;;;1.00;;
36989;SDS011;22898;52.102;5.776;2022-09-30T14:10:02;1.30;;;1.02;;
36989;SDS011;22898;52.102;5.776;2022-09-30T14:21:03;1.55;;;1.33;;
36989;SDS011;22898;52.102;5.776;2022-09-30T14:23:38;1.83;;;1.30;;
36989;SDS011;22898;52.102;5.776;2022-09-30T14:26:51;1.45;;;1.17;;
36989;SDS011;22898;52.102;5.776;2022-09-30T14:28:56;1.38;;;1.20;;
36989;SDS011;22898;52.102;5.776;2022-09-30T14:31:24;1.15;;;1.05;;
36989;SDS011;22898;52.102;5.776;2022-09-30T14:33:50;8.70;;;1.70;;
36989;SDS011;22898;52.102;5.776;2022-09-30T14:36:17;1.52;;;1.35;;
36989;SDS011;22898;52.102;5.776;2022-09-30T14:38:46;1.73;;;1.63;;
36989;SDS011;22898;52.102;5.776;2022-09-30T14:41:17;5.88;;;1.55;;
36989;SDS011;22898;52.102;5.776;2022-09-30T14:43:45;1.90;;;1.50;;
36989;SDS011;22898;52.102;5.776;2022-09-30T14:46:28;1.83;;;1.45;;
36989;SDS011;22898;52.102;5.776;2022-09-30T14:49:04;1.63;;;1.27;;
36989;SDS011;22898;52.102;5.776;2022-09-30T14:51:41;1.65;;;1.30;;
36989;SDS011;22898;52.102;5.776;2022-09-30T14:54:15;1.92;;;1.52;;
36989;SDS011;22898;52.102;5.776;2022-09-30T14:56:42;1.50;;;1.40;;
36989;SDS011;22898;52.102;5.776;2022-09-30T15:01:58;3.65;;;1.23;;
36989;SDS011;22898;52.102;5.776;2022-09-30T15:04:51;1.10;;;1.00;;
36989;SDS011;22898;52.102;5.776;2022-09-30T15:09:44;2.17;;;1.50;;
36989;SDS011;22898;52.102;5.776;2022-09-30T15:12:21;1.10;;;1.00;;
36989;SDS011;22898;52.102;5.776;2022-09-30T15:14:49;2.55;;;1.35;;
36989;SDS011;22898;52.102;5.776;2022-09-30T15:17:24;1.30;;;1.08;;
36989;SDS011;22898;52.102;5.776;2022-09-30T15:20:16;2.30;;;1.60;;
36989;SDS011;22898;52.102;5.776;2022-09-30T15:22:50;2.17;;;1.77;;
36989;SDS011;22898;52.102;5.776;2022-09-30T15:25:17;2.30;;;1.58;;
36989;SDS011;22898;52.102;5.776;2022-09-30T15:27:45;1.77;;;1.30;;
36989;SDS011;22898;52.102;5.776;2022-09-30T15:32:40;2.38;;;1.60;;
36989;SDS011;22898;52.102;5.776;2022-09-30T15:35:11;1.58;;;1.35;;
36989;SDS011;22898;52.102;5.776;2022-09-30T15:37:39;1.77;;;1.52;;
36989;SDS011;22898;52.102;5.776;2022-09-30T15:40:15;1.48;;;1.38;;
36989;SDS011;22898;52.102;5.776;2022-09-30T15:43:04;2.35;;;1.25;;
36989;SDS011;22898;52.102;5.776;2022-09-30T15:45:36;1.60;;;1.20;;
36989;SDS011;22898;52.102;5.776;2022-09-30T15:50:54;2.80;;;1.70;;
36989;SDS011;22898;52.102;5.776;2022-09-30T15:53:22;1.40;;;1.25;;
36989;SDS011;22898;52.102;5.776;2022-09-30T15:55:51;2.90;;;1.73;;
36989;SDS011;22898;52.102;5.776;2022-09-30T16:04:01;2.55;;;2.35;;
36989;SDS011;22898;52.102;5.776;2022-09-30T16:06:57;4.57;;;2.60;;
36989;SDS011;22898;52.102;5.776;2022-09-30T16:12:00;1.50;;;1.38;;
36989;SDS011;22898;52.102;5.776;2022-09-30T16:14:31;1.70;;;1.50;;
36989;SDS011;22898;52.102;5.776;2022-09-30T16:16:58;1.20;;;1.10;;
36989;SDS011;22898;52.102;5.776;2022-09-30T16:19:27;1.17;;;1.08;;
36989;SDS011;22898;52.102;5.776;2022-09-30T16:21:54;2.53;;;1.95;;
36989;SDS011;22898;52.102;5.776;2022-09-30T16:26:53;1.27;;;1.13;;
36989;SDS011;22898;52.102;5.776;2022-09-30T16:29:20;2.72;;;1.95;;
36989;SDS011;22898;52.102;5.776;2022-09-30T16:31:47;1.85;;;1.20;;
36989;SDS011;22898;52.102;5.776;2022-09-30T16:34:19;1.40;;;1.20;;
36989;SDS011;22898;52.102;5.776;2022-09-30T16:36:46;1.33;;;1.20;;
36989;SDS011;22898;52.102;5.776;2022-09-30T16:39:13;1.35;;;1.15;;
36989;SDS011;22898;52.102;5.776;2022-09-30T16:41:40;1.33;;;1.23;;
36989;SDS011;22898;52.102;5.776;2022-09-30T16:44:07;4.78;;;4.43;;
36989;SDS011;22898;52.102;5.776;2022-09-30T16:46:33;1.42;;;1.33;;
36989;SDS011;22898;52.102;5.776;2022-09-30T16:49:04;4.20;;;3.88;;
36989;SDS011;22898;52.102;5.776;2022-09-30T16:51:36;1.50;;;1.20;;
36989;SDS011;22898;52.102;5.776;2022-09-30T16:54:02;1.40;;;1.25;;
36989;SDS011;22898;52.102;5.776;2022-09-30T16:56:28;2.97;;;2.00;;
36989;SDS011;22898;52.102;5.776;2022-09-30T16:58:54;2.88;;;2.25;;
36989;SDS011;22898;52.102;5.776;2022-09-30T17:01:20;3.55;;;1.95;;
36989;SDS011;22898;52.102;5.776;2022-09-30T17:03:48;2.80;;;1.80;;
36989;SDS011;22898;52.102;5.776;2022-09-30T17:06:14;1.95;;;1.50;;
36989;SDS011;22898;52.102;5.776;2022-09-30T17:08:41;1.35;;;1.25;;
36989;SDS011;22898;52.102;5.776;2022-09-30T17:11:07;2.05;;;1.75;;
36989;SDS011;22898;52.102;5.776;2022-09-30T17:13:33;1.58;;;1.48;;
36989;SDS011;22898;52.102;5.776;2022-09-30T17:15:59;4.65;;;4.25;;
36989;SDS011;22898;52.102;5.776;2022-09-30T17:18:25;1.25;;;1.15;;
36989;SDS011;22898;52.102;5.776;2022-09-30T17:20:51;1.50;;;1.20;;
36989;SDS011;22898;52.102;5.776;2022-09-30T17:23:21;1.95;;;1.40;;
36989;SDS011;22898;52.102;5.776;2022-09-30T17:25:48;2.05;;;1.58;;
36989;SDS011;22898;52.102;5.776;2022-09-30T17:28:14;1.85;;;1.45;;
36989;SDS011;22898;52.102;5.776;2022-09-30T17:30:40;1.55;;;1.10;;
36989;SDS011;22898;52.102;5.776;2022-09-30T17:33:08;3.22;;;2.03;;
36989;SDS011;22898;52.102;5.776;2022-09-30T17:35:34;3.08;;;1.98;;
36989;SDS011;22898;52.102;5.776;2022-09-30T17:38:04;5.60;;;2.10;;
36989;SDS011;22898;52.102;5.776;2022-09-30T17:40:34;6.13;;;3.75;;
36989;SDS011;22898;52.102;5.776;2022-09-30T17:45:45;2.38;;;1.77;;
36989;SDS011;22898;52.102;5.776;2022-09-30T17:48:12;3.70;;;1.73;;
36989;SDS011;22898;52.102;5.776;2022-09-30T17:50:41;2.25;;;1.38;;
36989;SDS011;22898;52.102;5.776;2022-09-30T17:53:09;1.90;;;1.48;;
36989;SDS011;22898;52.102;5.776;2022-09-30T17:55:37;1.67;;;1.38;;
36989;SDS011;22898;52.102;5.776;2022-09-30T17:58:03;2.15;;;1.52;;
36989;SDS011;22898;52.102;5.776;2022-09-30T18:00:30;2.13;;;1.85;;
36989;SDS011;22898;52.102;5.776;2022-09-30T18:02:56;1.65;;;1.20;;
36989;SDS011;22898;52.102;5.776;2022-09-30T18:05:22;1.92;;;1.73;;
36989;SDS011;22898;52.102;5.776;2022-09-30T18:07:49;1.05;;;0.95;;
36989;SDS011;22898;52.102;5.776;2022-09-30T18:10:15;5.15;;;1.50;;
36989;SDS011;22898;52.102;5.776;2022-09-30T18:12:41;1.67;;;1.58;;
36989;SDS011;22898;52.102;5.776;2022-09-30T18:15:13;1.55;;;1.45;;
36989;SDS011;22898;52.102;5.776;2022-09-30T18:17:39;3.28;;;2.80;;
36989;SDS011;22898;52.102;5.776;2022-09-30T18:20:05;2.10;;;1.85;;
36989;SDS011;22898;52.102;5.776;2022-09-30T18:22:31;1.33;;;1.23;;
36989;SDS011;22898;52.102;5.776;2022-09-30T18:24:57;2.28;;;1.90;;
36989;SDS011;22898;52.102;5.776;2022-09-30T18:27:41;1.67;;;1.50;;